Time;durP1;ratioP1;P1;durP2;ratioP2;P2;SDS_P1;SDS_P2;PMS_P1;PMS_P2;Temp;Humidity;BMP_temperature;BMP_pressure;BME280_temperature;BME280_humidity;BME280_pressure;Samples;Min_cycle;Max_cycle;Signal;HPM_P1;HPM_P2
2021/01/05 00:00:27;;;;;;;5.60;4.47;;;;;;;6.85;89.41;92456.13;5054974;28;20029;-45
2021/01/05 00:02:53;;;;;;;6.28;4.63;;;;;;;6.81;89.41;92457.78;5054698;28;20025;-45
2021/01/05 00:05:21;;;;;;;6.88;4.40;;;;;;;6.87;89.27;92467.28;5054727;28;20021;-45
2021/01/05 00:07:47;;;;;;;5.80;4.25;;;;;;;6.88;89.05;92460.53;5054946;28;20021;-44
2021/01/05 00:10:12;;;;;;;4.50;3.28;;;;;;;6.82;89.15;92467.47;5054779;28;20509;-44
2021/01/05 00:12:38;;;;;;;5.25;3.90;;;;;;;6.77;89.00;92462.91;5054591;28;20017;-47
2021/01/05 00:15:06;;;;;;;5.47;3.88;;;;;;;6.74;88.89;92475.69;5054623;28;20025;-47
2021/01/05 00:17:31;;;;;;;6.22;4.35;;;;;;;6.72;88.87;92475.50;5054608;28;20127;-45
2021/01/05 00:19:57;;;;;;;7.18;3.97;;;;;;;6.73;88.84;92487.22;5054617;28;20048;-45
2021/01/05 00:22:22;;;;;;;4.32;3.58;;;;;;;6.72;88.82;92481.00;5054475;28;20462;-45
2021/01/05 00:24:48;;;;;;;4.05;2.92;;;;;;;6.86;88.75;92484.31;5054493;28;20029;-47
2021/01/05 00:27:13;;;;;;;4.13;3.15;;;;;;;6.89;88.24;92477.69;5054394;28;20139;-48
2021/01/05 00:29:39;;;;;;;4.93;2.80;;;;;;;6.91;87.81;92491.59;5054296;28;20028;-48
2021/01/05 00:32:17;;;;;;;3.80;2.50;;;;;;;6.75;87.71;92477.16;5054266;28;20025;-46
2021/01/05 00:34:43;;;;;;;2.72;2.47;;;;;;;6.86;87.19;92495.28;5054310;28;20032;-47
2021/01/05 00:37:09;;;;;;;3.25;1.92;;;;;;;6.93;86.86;92494.53;5054144;28;20025;-46
2021/01/05 00:39:34;;;;;;;4.53;2.22;;;;;;;6.66;86.64;92487.94;5036395;28;20028;-47
2021/01/05 00:42:00;;;;;;;3.25;2.50;;;;;;;6.70;86.51;92499.28;5053952;28;20035;-47
2021/01/05 00:44:26;;;;;;;3.80;1.52;;;;;;;6.54;86.16;92495.06;5054115;28;20039;-46
2021/01/05 00:46:51;;;;;;;1.70;1.60;;;;;;;6.47;86.34;92506.72;5053879;28;20071;-45
2021/01/05 00:49:16;;;;;;;2.15;1.50;;;;;;;6.55;87.30;92513.69;5053986;28;20024;-46
2021/01/05 00:51:42;;;;;;;5.97;3.35;;;;;;;6.59;87.31;92521.56;5053867;28;20017;-46
2021/01/05 00:54:08;;;;;;;1.73;1.40;;;;;;;6.43;86.19;92517.31;5053514;28;20028;-48
2021/01/05 00:56:33;;;;;;;2.45;1.90;;;;;;;6.45;86.16;92525.75;5053855;28;20021;-45
2021/01/05 00:58:59;;;;;;;2.55;2.08;;;;;;;6.46;85.78;92532.66;5053631;28;20028;-49
2021/01/05 01:01:24;;;;;;;4.15;2.97;;;;;;;6.43;85.61;92536.53;5053363;28;20112;-48
2021/01/05 01:03:50;;;;;;;1.30;0.95;;;;;;;6.39;85.38;92531.38;5052188;28;20049;-47
2021/01/05 01:06:17;;;;;;;1.55;1.23;;;;;;;6.25;84.27;92537.53;5053298;28;20021;-47
2021/01/05 01:08:43;;;;;;;2.70;1.00;;;;;;;6.24;85.14;92545.03;5053509;28;20031;-45
2021/01/05 01:11:08;;;;;;;1.80;1.08;;;;;;;6.26;84.93;92549.97;5053518;28;20021;-46
2021/01/05 01:13:33;;;;;;;2.35;0.93;;;;;;;6.33;85.42;92555.47;5053614;28;20025;-44
2021/01/05 01:15:59;;;;;;;2.03;1.65;;;;;;;6.32;85.27;92561.50;5053494;28;20028;-45
2021/01/05 01:18:24;;;;;;;3.28;1.50;;;;;;;6.18;85.21;92557.44;5053548;28;20027;-47
2021/01/05 01:20:50;;;;;;;3.47;1.70;;;;;;;6.16;84.84;92562.72;5053386;28;20421;-45
2021/01/05 01:23:16;;;;;;;1.20;1.10;;;;;;;6.15;84.75;92564.00;5053303;28;20020;-45
2021/01/05 01:25:42;;;;;;;1.92;1.35;;;;;;;6.16;84.81;92570.94;5053423;28;20032;-44
2021/01/05 01:28:08;;;;;;;2.45;1.38;;;;;;;6.17;85.14;92564.19;5053376;28;20028;-45
2021/01/05 01:30:33;;;;;;;2.05;1.13;;;;;;;6.11;84.81;92567.81;5053235;28;20025;-44
2021/01/05 01:32:59;;;;;;;3.13;1.23;;;;;;;6.05;84.86;92570.00;5053126;28;20021;-44
2021/01/05 01:35:24;;;;;;;1.77;1.00;;;;;;;6.05;84.88;92567.25;5053060;28;20028;-46
2021/01/05 01:37:49;;;;;;;8.10;4.68;;;;;;;6.02;84.11;92564.88;5053052;28;20036;-44
2021/01/05 01:40:19;;;;;;;33.58;15.15;;;;;;;6.08;84.19;92563.44;5052935;28;20021;-44
2021/01/05 01:42:45;;;;;;;30.40;12.60;;;;;;;6.15;84.04;92574.97;5018707;28;20524;-46
2021/01/05 01:45:22;;;;;;;5.40;3.58;;;;;;;6.14;83.34;92568.75;5052860;28;20060;-45
2021/01/05 01:47:47;;;;;;;26.27;10.63;;;;;;;6.11;82.89;92567.06;5052785;28;20049;-45
2021/01/05 01:50:16;;;;;;;17.80;7.53;;;;;;;6.11;83.74;92572.56;5052665;28;20021;-46
2021/01/05 01:53:32;;;;;;;15.32;8.45;;;;;;;6.09;83.83;92570.38;5035073;28;20459;-44
2021/01/05 01:56:16;;;;;;;16.80;10.85;;;;;;;6.03;84.33;92580.75;5008400;28;20421;-45
2021/01/05 01:59:20;;;;;;;7.72;5.65;;;;;;;5.93;84.30;92585.25;5052617;28;20112;-45
2021/01/05 02:01:58;;;;;;;3.65;2.38;;;;;;;5.96;84.35;92586.91;4997650;28;20413;-45
2021/01/05 02:04:44;;;;;;;3.88;2.60;;;;;;;5.94;84.52;92596.94;5052677;28;20029;-46
2021/01/05 02:07:28;;;;;;;5.53;3.35;;;;;;;5.86;84.56;92602.41;5052526;28;20159;-47
2021/01/05 02:10:08;;;;;;;2.22;1.42;;;;;;;5.79;84.55;92607.78;5052493;28;20413;-47
2021/01/05 02:12:51;;;;;;;1.23;0.90;;;;;;;5.81;84.49;92597.03;5052763;28;20017;-47
2021/01/05 02:15:34;;;;;;;2.03;1.10;;;;;;;5.80;84.96;92604.53;5034493;28;20059;-45
2021/01/05 02:18:00;;;;;;;1.30;1.10;;;;;;;5.87;84.14;92609.31;5034692;28;20406;-44
2021/01/05 02:20:25;;;;;;;1.63;0.82;;;;;;;5.75;84.29;92608.13;5052210;28;20036;-44
2021/01/05 02:23:00;;;;;;;1.40;1.10;;;;;;;5.86;83.93;92610.63;5052295;28;20428;-44
2021/01/05 02:25:49;;;;;;;1.15;1.05;;;;;;;5.76;84.15;92611.63;5052303;28;20589;-47
2021/01/05 02:28:17;;;;;;;0.93;0.63;;;;;;;5.85;84.18;92622.09;5034454;28;20025;-45
2021/01/05 02:30:50;;;;;;;0.73;0.68;;;;;;;5.65;84.31;92609.16;5034386;28;20032;-46
2021/01/05 02:33:44;;;;;;;1.85;1.02;;;;;;;5.79;84.19;92616.00;5034226;28;20051;-46
2021/01/05 02:36:42;;;;;;;1.13;0.90;;;;;;;5.67;84.48;92610.09;5034311;28;20386;-47
2021/01/05 02:39:20;;;;;;;1.70;1.38;;;;;;;5.74;84.29;92627.84;5014360;28;20532;-47
2021/01/05 02:41:54;;;;;;;5.07;1.45;;;;;;;5.77;84.07;92624.03;5051804;28;20029;-46
2021/01/05 02:44:30;;;;;;;4.47;1.50;;;;;;;5.81;84.21;92622.41;5052015;28;20107;-47
2021/01/05 02:47:05;;;;;;;3.35;1.70;;;;;;;5.71;84.73;92623.44;5051608;28;20041;-48
2021/01/05 02:49:45;;;;;;;1.95;1.00;;;;;;;5.78;84.82;92623.47;5034015;28;20083;-49
2021/01/05 02:52:37;;;;;;;1.67;1.55;;;;;;;5.79;85.08;92624.97;5051705;28;20024;-48
2021/01/05 02:55:33;;;;;;;1.35;0.90;;;;;;;5.78;85.14;92626.22;5034146;28;20044;-46
2021/01/05 02:58:17;;;;;;;1.05;0.73;;;;;;;5.80;84.70;92626.44;5051644;28;20645;-46
2021/01/05 03:00:55;;;;;;;1.38;0.80;;;;;;;5.80;83.89;92631.19;5051586;28;20020;-49
2021/01/05 03:03:39;;;;;;;0.55;0.40;;;;;;;5.74;84.19;92630.59;5051466;28;20103;-46
2021/01/05 03:06:17;;;;;;;1.25;0.60;;;;;;;5.79;83.73;92641.41;5051674;28;20052;-45
2021/01/05 03:09:03;;;;;;;0.50;0.50;;;;;;;5.88;83.70;92638.19;5050220;28;20032;-45
2021/01/05 03:11:41;;;;;;;0.50;0.50;;;;;;;5.89;83.49;92642.41;4999123;28;20029;-47
2021/01/05 03:14:13;;;;;;;0.55;0.55;;;;;;;5.76;83.21;92641.75;5032464;28;20025;-46
2021/01/05 03:16:49;;;;;;;0.70;0.60;;;;;;;5.82;82.55;92642.31;5032196;28;20048;-45
2021/01/05 03:19:36;;;;;;;0.73;0.60;;;;;;;5.76;82.58;92647.94;5032127;28;20497;-45
2021/01/05 03:22:05;;;;;;;3.90;2.13;;;;;;;5.74;82.92;92645.00;5049957;28;20029;-45
2021/01/05 03:24:31;;;;;;;3.33;1.88;;;;;;;5.75;82.90;92651.97;5033167;28;20035;-47
2021/01/05 03:26:57;;;;;;;8.32;3.65;;;;;;;5.73;83.10;92649.03;5032671;28;20021;-46
2021/01/05 03:29:22;;;;;;;10.68;4.28;;;;;;;5.78;82.71;92650.16;5033409;28;20379;-46
2021/01/05 03:31:53;;;;;;;1.60;1.38;;;;;;;5.63;82.21;92647.31;5051234;28;20013;-46
2021/01/05 03:34:20;;;;;;;1.08;0.60;;;;;;;5.70;82.59;92654.81;5051125;28;20028;-45
2021/01/05 03:36:46;;;;;;;2.30;0.75;;;;;;;5.74;82.86;92661.44;5051418;28;20048;-47
2021/01/05 03:39:12;;;;;;;3.15;0.60;;;;;;;5.64;82.74;92656.97;5051096;28;20471;-47
2021/01/05 03:41:38;;;;;;;1.42;0.85;;;;;;;5.69;82.87;92656.84;5051079;28;20115;-45
2021/01/05 03:44:04;;;;;;;2.03;1.10;;;;;;;5.75;82.95;92668.38;5051125;28;20027;-46
2021/01/05 03:46:30;;;;;;;1.40;0.73;;;;;;;5.77;82.82;92665.84;5051024;28;21082;-45
2021/01/05 03:48:56;;;;;;;0.95;0.70;;;;;;;5.71;81.92;92657.03;5051174;28;20029;-49
2021/01/05 03:51:22;;;;;;;0.95;0.60;;;;;;;5.75;82.29;92665.66;5050807;28;20028;-45
2021/01/05 03:53:47;;;;;;;0.30;0.30;;;;;;;5.75;82.05;92662.91;5051147;28;20109;-46
2021/01/05 03:56:12;;;;;;;0.82;0.65;;;;;;;5.69;81.91;92670.53;5051165;28;20032;-48
2021/01/05 03:58:38;;;;;;;1.13;0.73;;;;;;;5.79;81.31;92681.75;5051057;28;20186;-44
2021/01/05 04:01:04;;;;;;;1.38;0.90;;;;;;;5.77;81.78;92678.81;5032994;28;20459;-47
2021/01/05 04:03:29;;;;;;;0.60;0.50;;;;;;;5.80;81.87;92685.97;5050880;28;20154;-44
2021/01/05 04:05:54;;;;;;;3.42;1.75;;;;;;;5.84;81.50;92678.91;5050853;28;20163;-45
2021/01/05 04:08:20;;;;;;;3.10;1.67;;;;;;;5.82;81.54;92684.16;5050786;28;20473;-46
2021/01/05 04:10:45;;;;;;;2.40;1.75;;;;;;;5.77;81.41;92681.53;5050844;28;20071;-44
2021/01/05 04:13:11;;;;;;;7.57;3.25;;;;;;;5.81;81.64;92687.41;5050835;28;20393;-44
2021/01/05 04:15:37;;;;;;;3.97;3.00;;;;;;;5.80;81.74;92683.97;5050413;28;20424;-46
2021/01/05 04:18:02;;;;;;;5.25;2.38;;;;;;;5.77;81.90;92690.50;5050766;28;20458;-46
2021/01/05 04:20:29;;;;;;;2.47;1.58;;;;;;;5.78;82.45;92697.44;5050768;28;20108;-47
2021/01/05 04:22:55;;;;;;;2.85;1.92;;;;;;;5.77;82.62;92695.97;5050741;28;20025;-48
2021/01/05 04:25:21;;;;;;;3.58;1.50;;;;;;;5.72;82.81;92698.84;5050953;28;20053;-46
2021/01/05 04:27:48;;;;;;;1.77;1.30;;;;;;;5.68;82.87;92707.41;5050663;28;20544;-48
2021/01/05 04:30:26;;;;;;;1.50;1.30;;;;;;;5.60;82.83;92711.34;5050687;28;20482;-48
2021/01/05 04:32:52;;;;;;;1.10;0.70;;;;;;;5.63;83.44;92721.94;5050669;28;20107;-46
2021/01/05 04:35:19;;;;;;;3.22;0.63;;;;;;;5.70;83.22;92721.28;5049597;28;20028;-45
2021/01/05 04:37:45;;;;;;;0.40;0.40;;;;;;;5.66;83.18;92715.41;5051820;28;20456;-46
2021/01/05 04:40:22;;;;;;;2.03;1.55;;;;;;;5.59;83.30;92712.63;5054206;28;20036;-44
2021/01/05 04:42:51;;;;;;;4.20;2.85;;;;;;;5.56;83.46;92714.44;5054181;28;20055;-44
2021/01/05 04:45:18;;;;;;;;;;;;;;;5.61;83.89;92710.78;5036848;28;20029;-47
2021/01/05 04:47:56;;;;;;;3.95;2.58;;;;;;;5.52;83.96;92716.75;5036116;28;19917;-48
2021/01/05 04:50:30;;;;;;;1.00;0.77;;;;;;;5.45;83.58;92733.09;5053901;28;20032;-45
2021/01/05 04:52:59;;;;;;;2.05;1.67;;;;;;;5.38;84.47;92731.75;5054068;28;20025;-46
2021/01/05 04:55:41;;;;;;;1.95;1.48;;;;;;;5.57;85.10;92746.00;5036336;28;20463;-45
2021/01/05 04:58:24;;;;;;;1.75;1.65;;;;;;;5.47;85.01;92744.25;5053892;28;20067;-47
2021/01/05 05:00:50;;;;;;;2.20;1.65;;;;;;;5.42;84.96;92751.31;5036086;28;20024;-47
2021/01/05 05:03:44;;;;;;;3.42;1.65;;;;;;;5.34;84.69;92766.94;5035987;28;20021;-50
2021/01/05 05:06:26;;;;;;;3.08;1.90;;;;;;;5.33;85.04;92754.50;5036029;28;20460;-44
2021/01/05 05:09:31;;;;;;;2.15;1.30;;;;;;;5.29;85.00;92765.06;5053747;28;20083;-46
2021/01/05 05:12:31;;;;;;;2.10;1.60;;;;;;;5.23;85.04;92761.72;4999735;28;20387;-46
2021/01/05 05:15:04;;;;;;;2.03;1.25;;;;;;;5.10;84.90;92767.97;5035398;28;20459;-47
2021/01/05 05:17:57;;;;;;;2.42;1.63;;;;;;;5.14;85.12;92786.78;5035704;28;20028;-45
2021/01/05 05:20:41;;;;;;;2.60;1.55;;;;;;;5.14;85.61;92784.03;5053639;28;20437;-48
2021/01/05 05:23:37;;;;;;;2.78;1.52;;;;;;;5.07;85.46;92774.47;5053356;28;20032;-46
2021/01/05 05:26:12;;;;;;;2.00;1.40;;;;;;;5.06;85.31;92781.22;5035683;28;20025;-47
2021/01/05 05:28:48;;;;;;;1.70;1.30;;;;;;;5.01;84.71;92779.34;5035593;28;20528;-45
2021/01/05 05:31:18;;;;;;;1.85;1.60;;;;;;;5.02;85.31;92785.53;5035712;28;20036;-46
2021/01/05 05:33:44;;;;;;;3.70;2.53;;;;;;;4.99;85.57;92794.81;5035387;28;20021;-45
2021/01/05 05:36:34;;;;;;;6.47;3.72;;;;;;;4.98;85.85;92802.25;5035449;28;20078;-44
2021/01/05 05:39:19;;;;;;;7.82;3.90;;;;;;;5.01;85.47;92806.69;5053192;28;20024;-45
2021/01/05 05:41:57;;;;;;;6.63;3.40;;;;;;;4.94;85.96;92801.84;5035229;28;20052;-45
2021/01/05 05:44:35;;;;;;;3.15;2.38;;;;;;;4.89;86.20;92799.25;5035396;28;20032;-44
2021/01/05 05:47:15;;;;;;;4.10;2.13;;;;;;;4.89;86.26;92807.44;5031752;28;20160;-44
2021/01/05 05:49:49;;;;;;;3.58;2.30;;;;;;;4.95;86.55;92813.53;5032719;28;20045;-45
2021/01/05 05:52:42;;;;;;;12.15;4.18;;;;;;;4.93;86.32;92824.28;5033142;28;20104;-45
2021/01/05 05:55:47;;;;;;;24.90;9.88;;;;;;;4.97;86.36;92824.69;5022072;28;20033;-47
2021/01/05 05:58:20;;;;;;;13.13;4.70;;;;;;;5.02;86.44;92827.31;4992509;28;20518;-45
2021/01/05 06:00:48;;;;;;;29.90;9.75;;;;;;;5.06;86.22;92825.00;5031726;28;20076;-46
2021/01/05 06:03:16;;;;;;;20.52;6.65;;;;;;;5.11;86.13;92831.63;5031642;28;20048;-43
2021/01/05 06:05:43;;;;;;;13.38;5.07;;;;;;;5.06;85.85;92837.94;5032557;28;20472;-45
2021/01/05 06:08:10;;;;;;;5.43;2.92;;;;;;;4.99;85.64;92850.25;5032206;28;20422;-43
2021/01/05 06:10:35;;;;;;;4.43;2.55;;;;;;;5.03;85.65;92856.13;5031199;28;20483;-43
2021/01/05 06:13:01;;;;;;;8.45;4.28;;;;;;;5.04;85.42;92856.88;5032363;28;20078;-44
2021/01/05 06:15:26;;;;;;;22.55;9.75;;;;;;;5.14;85.36;92855.94;5032569;28;20172;-44
2021/01/05 06:17:52;;;;;;;13.90;6.38;;;;;;;5.14;85.21;92855.19;5032408;28;20491;-44
2021/01/05 06:20:18;;;;;;;16.42;9.52;;;;;;;5.03;84.40;92858.88;5032344;28;20045;-44
2021/01/05 06:22:44;;;;;;;4.90;3.10;;;;;;;5.20;84.53;92880.44;5032256;28;20024;-45
2021/01/05 06:25:11;;;;;;;8.68;5.68;;;;;;;5.20;84.56;92883.16;5032349;28;20637;-43
2021/01/05 06:27:36;;;;;;;5.53;3.17;;;;;;;5.18;83.99;92891.16;5032226;28;20525;-43
2021/01/05 06:30:04;;;;;;;11.27;5.13;;;;;;;5.30;83.93;92895.19;5032429;28;20033;-46
2021/01/05 06:32:30;;;;;;;9.93;5.82;;;;;;;5.45;84.13;92908.31;5032121;28;20033;-46
2021/01/05 06:34:55;;;;;;;10.70;6.65;;;;;;;5.51;84.18;92906.94;5032286;28;20418;-46
2021/01/05 06:37:21;;;;;;;32.95;14.85;;;;;;;5.64;83.89;92897.94;5032339;28;20029;-48
2021/01/05 06:39:46;;;;;;;21.02;10.40;;;;;;;5.57;83.27;92896.59;5032125;28;20021;-47
2021/01/05 06:42:12;;;;;;;15.95;7.97;;;;;;;5.63;83.14;92885.53;5031778;28;20037;-46
2021/01/05 06:44:38;;;;;;;8.50;5.25;;;;;;;5.53;82.87;92879.00;5032022;28;20025;-47
2021/01/05 06:47:03;;;;;;;2.80;2.42;;;;;;;5.57;82.48;92893.84;5043090;28;20501;-45
2021/01/05 06:49:29;;;;;;;4.68;2.83;;;;;;;5.49;82.96;92897.78;5071732;28;20424;-45
2021/01/05 06:51:56;;;;;;;7.55;3.33;;;;;;;5.50;83.40;92899.25;5071621;28;20020;-45
2021/01/05 06:54:21;;;;;;;8.43;4.97;;;;;;;5.50;83.64;92902.00;5071689;28;20090;-46
2021/01/05 06:56:48;;;;;;;8.90;3.17;;;;;;;5.54;83.04;92899.66;5070105;28;20463;-46
2021/01/05 06:59:14;;;;;;;4.78;3.15;;;;;;;5.74;83.63;92901.75;5071425;28;20028;-46
2021/01/05 07:01:39;;;;;;;4.25;2.58;;;;;;;5.84;81.83;92909.00;5071164;28;20025;-48
2021/01/05 07:04:05;;;;;;;21.77;9.68;;;;;;;6.00;81.08;92913.38;5071563;28;20409;-45
2021/01/05 07:06:31;;;;;;;10.38;6.43;;;;;;;6.17;80.97;92904.78;5071460;28;20110;-50
2021/01/05 07:08:56;;;;;;;7.30;4.50;;;;;;;6.29;80.12;92899.75;5053658;28;20513;-44
2021/01/05 07:11:22;;;;;;;11.52;6.75;;;;;;;6.31;80.16;92908.94;5071449;28;20049;-45
2021/01/05 07:13:47;;;;;;;9.73;5.18;;;;;;;6.33;79.53;92909.13;5071335;28;20024;-44
2021/01/05 07:16:12;;;;;;;8.50;5.82;;;;;;;6.13;79.63;92884.47;5066204;28;20028;-46
2021/01/05 07:18:38;;;;;;;8.68;5.03;;;;;;;6.21;79.97;92910.66;5070287;28;20020;-44
2021/01/05 07:21:04;;;;;;;11.23;6.53;;;;;;;6.30;80.46;92921.19;5071230;28;20085;-47
2021/01/05 07:23:30;;;;;;;47.28;19.48;;;;;;;6.47;80.30;92920.78;5071135;28;20028;-45
2021/01/05 07:25:55;;;;;;;9.57;5.85;;;;;;;6.25;78.77;92918.56;5071531;28;20035;-44
2021/01/05 07:28:20;;;;;;;24.15;12.98;;;;;;;6.43;79.07;92925.88;5071351;28;20035;-46
2021/01/05 07:30:46;;;;;;;8.65;5.32;;;;;;;6.74;78.24;92922.84;5071166;28;20020;-45
2021/01/05 07:33:11;;;;;;;6.07;4.38;;;;;;;7.18;77.17;92934.69;5063209;28;20013;-51
2021/01/05 07:35:37;;;;;;;7.88;4.72;;;;;;;7.45;75.86;92933.19;5050201;28;20182;-46
2021/01/05 07:38:02;;;;;;;10.73;6.60;;;;;;;7.87;75.51;92933.03;5053286;28;20405;-50
2021/01/05 07:40:28;;;;;;;9.85;6.03;;;;;;;7.70;74.28;92928.03;5050533;28;20524;-44
2021/01/05 07:42:53;;;;;;;7.18;4.68;;;;;;;7.77;74.23;92929.34;5068528;28;20029;-47
2021/01/05 07:45:20;;;;;;;6.75;4.93;;;;;;;7.84;74.34;92936.88;5060388;28;20020;-44
2021/01/05 07:47:46;;;;;;;9.10;5.07;;;;;;;7.88;73.54;92940.00;5062676;28;20045;-45
2021/01/05 07:50:18;;;;;;;5.82;3.83;;;;;;;8.11;72.38;92947.06;5040258;28;20082;-46
2021/01/05 07:52:44;;;;;;;7.32;4.38;;;;;;;8.30;71.44;92950.28;5059446;28;20563;-50
2021/01/05 07:55:20;;;;;;;6.10;3.67;;;;;;;8.80;70.50;92958.97;5060722;28;20025;-44
2021/01/05 07:57:46;;;;;;;4.80;3.42;;;;;;;9.42;68.78;92955.69;5055407;28;20100;-44
2021/01/05 08:00:20;;;;;;;6.78;3.30;;;;;;;9.89;64.11;92955.75;5059696;28;20032;-48
2021/01/05 08:02:46;;;;;;;4.10;2.65;;;;;;;10.55;62.57;92949.78;5055150;28;20013;-45
2021/01/05 08:05:14;;;;;;;10.82;4.82;;;;;;;11.74;60.39;92949.44;5057593;28;20526;-45
2021/01/05 08:07:39;;;;;;;7.88;4.30;;;;;;;12.71;56.37;92960.66;5057944;28;20039;-45
2021/01/05 08:10:07;;;;;;;7.85;3.95;;;;;;;12.90;55.53;92968.34;5058954;28;20024;-44
2021/01/05 08:12:32;;;;;;;6.97;3.40;;;;;;;14.03;52.64;92974.16;5063307;28;20019;-45
2021/01/05 08:14:58;;;;;;;4.72;3.20;;;;;;;14.48;50.03;92973.31;5062948;28;20100;-45
2021/01/05 08:17:23;;;;;;;4.20;2.63;;;;;;;14.91;48.75;92977.78;5062766;28;20086;-44
2021/01/05 08:19:48;;;;;;;8.68;4.72;;;;;;;14.22;50.00;92976.94;5064343;28;20492;-45
2021/01/05 08:22:14;;;;;;;4.80;3.25;;;;;;;14.67;47.60;92989.22;5062055;28;20513;-44
2021/01/05 08:24:40;;;;;;;5.60;3.85;;;;;;;15.06;47.28;92990.63;5063184;28;20067;-44
2021/01/05 08:27:07;;;;;;;5.10;2.22;;;;;;;15.23;46.50;92986.91;5053576;28;20074;-44
2021/01/05 08:29:33;;;;;;;8.02;3.25;;;;;;;15.89;44.70;92989.44;5053416;28;20048;-45
2021/01/05 08:31:58;;;;;;;8.30;2.63;;;;;;;16.53;43.93;92990.19;5053218;28;20514;-45
2021/01/05 08:34:24;;;;;;;2.97;2.35;;;;;;;16.51;43.10;92994.91;5053343;28;20037;-45
2021/01/05 08:36:49;;;;;;;3.05;2.80;;;;;;;16.29;41.76;93004.56;5053412;28;20033;-46
2021/01/05 08:39:15;;;;;;;2.70;2.05;;;;;;;16.25;43.38;93002.25;5053478;28;20017;-41
2021/01/05 08:41:44;;;;;;;2.35;2.00;;;;;;;15.14;45.40;92993.94;5053225;28;20021;-42
2021/01/05 08:44:10;;;;;;;3.90;2.60;;;;;;;14.95;45.01;93005.13;5053434;28;20029;-45
2021/01/05 08:46:36;;;;;;;1.95;1.65;;;;;;;15.09;46.54;93001.28;5053184;28;20098;-46
2021/01/05 08:49:01;;;;;;;3.35;1.70;;;;;;;15.95;43.46;93005.81;5053065;28;20025;-47
2021/01/05 08:51:27;;;;;;;3.17;1.90;;;;;;;16.59;41.66;93003.78;5053012;28;20078;-43
2021/01/05 08:53:52;;;;;;;3.97;3.00;;;;;;;16.63;40.61;93001.28;5052983;28;20025;-44
2021/01/05 08:56:22;;;;;;;4.07;2.75;;;;;;;17.21;39.73;93007.78;5052931;28;20067;-43
2021/01/05 08:58:48;;;;;;;8.05;3.22;;;;;;;16.91;39.81;93005.13;5053025;28;20029;-43
2021/01/05 09:01:14;;;;;;;9.25;4.18;;;;;;;17.41;37.75;92997.13;5052600;28;20025;-44
2021/01/05 09:03:39;;;;;;;3.42;2.55;;;;;;;17.77;37.22;93009.81;5054613;28;20017;-44
2021/01/05 09:06:06;;;;;;;3.72;2.10;;;;;;;18.12;35.67;93000.09;5053611;28;20025;-45
2021/01/05 09:08:32;;;;;;;7.90;4.40;;;;;;;18.57;34.99;93013.88;5052766;28;20039;-48
2021/01/05 09:10:59;;;;;;;6.28;2.65;;;;;;;18.33;34.21;93004.03;5052896;28;20059;-43
2021/01/05 09:13:25;;;;;;;17.20;9.95;;;;;;;18.15;35.14;93010.03;5051270;28;20472;-45
2021/01/05 09:15:51;;;;;;;11.05;5.63;;;;;;;17.36;37.06;93006.59;5051967;28;20049;-44
2021/01/05 09:18:18;;;;;;;9.65;6.47;;;;;;;16.98;37.35;93009.78;5051654;28;20025;-45
2021/01/05 09:20:43;;;;;;;11.55;6.63;;;;;;;15.72;39.66;93008.44;5051623;28;20033;-43
2021/01/05 09:23:09;;;;;;;35.55;16.08;;;;;;;14.82;42.40;93016.69;5050760;28;20037;-46
2021/01/05 09:25:37;;;;;;;11.13;7.35;;;;;;;14.52;43.47;93012.47;5050885;28;20031;-48
2021/01/05 09:28:03;;;;;;;5.00;3.65;;;;;;;15.06;43.87;93013.59;5051385;28;20404;-49
2021/01/05 09:30:28;;;;;;;5.50;3.63;;;;;;;15.91;42.56;93009.06;5050881;28;20029;-49
2021/01/05 09:32:54;;;;;;;6.32;4.80;;;;;;;16.85;39.07;93010.34;5051041;28;20032;-50
2021/01/05 09:35:19;;;;;;;4.40;2.38;;;;;;;16.91;38.32;93017.03;5051242;28;20035;-45
2021/01/05 09:37:47;;;;;;;4.65;2.22;;;;;;;17.53;37.87;93005.53;5050952;28;20029;-47
2021/01/05 09:40:14;;;;;;;2.95;2.40;;;;;;;18.37;36.21;93001.47;5050872;28;20024;-46
2021/01/05 09:42:39;;;;;;;2.67;2.35;;;;;;;19.13;34.84;93005.88;5032727;28;20025;-44
2021/01/05 09:45:06;;;;;;;5.78;3.72;;;;;;;19.78;33.92;93015.72;5051234;28;20505;-43
2021/01/05 09:47:32;;;;;;;3.50;2.63;;;;;;;18.53;33.48;93008.78;5050370;28;20106;-47
2021/01/05 09:49:57;;;;;;;5.20;3.20;;;;;;;17.25;36.44;93005.22;5050646;28;20025;-43
2021/01/05 09:52:24;;;;;;;3.75;2.47;;;;;;;17.53;36.61;93019.50;5050562;28;20383;-45
2021/01/05 09:54:51;;;;;;;2.78;2.15;;;;;;;18.51;35.48;93005.13;5050995;28;20029;-45
2021/01/05 09:57:17;;;;;;;4.35;1.77;;;;;;;18.63;33.99;92994.63;5050888;28;20044;-44
2021/01/05 09:59:44;;;;;;;2.10;1.70;;;;;;;19.31;33.73;92990.09;5058187;28;20028;-47
2021/01/05 10:02:11;;;;;;;3.80;2.42;;;;;;;19.94;32.78;92990.66;5054177;28;20642;-43
2021/01/05 10:04:37;;;;;;;1.90;1.80;;;;;;;19.81;29.55;92997.69;5049266;28;20424;-46
2021/01/05 10:07:02;;;;;;;3.67;2.00;;;;;;;19.58;30.05;92997.84;5050640;28;20109;-53
2021/01/05 10:09:28;;;;;;;2.35;2.00;;;;;;;19.35;31.02;92993.13;5051152;28;20651;-48
2021/01/05 10:11:53;;;;;;;1.98;1.80;;;;;;;19.71;29.88;92976.81;5054313;28;20044;-49
2021/01/05 10:14:21;;;;;;;2.03;1.30;;;;;;;19.13;30.08;92983.47;5053814;28;20028;-51
2021/01/05 10:16:53;;;;;;;1.35;1.25;;;;;;;19.40;31.00;92985.69;5066654;28;20040;-49
2021/01/05 10:19:19;;;;;;;1.98;1.48;;;;;;;19.89;31.57;92992.50;5050995;28;20454;-49
2021/01/05 10:21:44;;;;;;;2.33;1.73;;;;;;;19.80;28.41;92998.28;5059501;28;20036;-48
2021/01/05 10:24:12;;;;;;;4.60;2.83;;;;;;;19.43;30.24;93001.22;5045351;28;20036;-45
2021/01/05 10:26:37;;;;;;;2.67;2.30;;;;;;;19.92;29.50;92996.16;5056604;28;20028;-45
2021/01/05 10:29:04;;;;;;;5.53;2.72;;;;;;;19.33;30.29;93003.47;5069711;28;20146;-44
2021/01/05 10:31:37;;;;;;;4.00;2.45;;;;;;;19.05;30.36;92985.13;5056122;28;20025;-44
2021/01/05 10:34:03;;;;;;;4.53;3.30;;;;;;;19.44;30.42;93000.63;5049614;28;20020;-47
2021/01/05 10:36:29;;;;;;;4.15;2.38;;;;;;;18.99;30.64;93010.69;5049283;28;20578;-46
2021/01/05 10:38:54;;;;;;;3.35;2.80;;;;;;;18.37;33.52;92998.69;5049507;28;20029;-46
2021/01/05 10:41:20;;;;;;;4.55;2.95;;;;;;;18.66;33.03;93004.59;5050123;28;20433;-47
2021/01/05 10:43:45;;;;;;;7.22;4.50;;;;;;;18.91;32.65;93001.81;5049824;28;20391;-49
2021/01/05 10:46:11;;;;;;;6.53;2.80;;;;;;;19.79;31.55;93017.19;5050007;28;20029;-48
2021/01/05 10:48:37;;;;;;;1.88;1.38;;;;;;;19.67;29.50;93013.72;5077851;28;20032;-46
2021/01/05 10:51:04;;;;;;;2.65;1.60;;;;;;;19.59;29.25;93008.44;5089204;28;20070;-45
2021/01/05 10:53:31;;;;;;;4.05;2.45;;;;;;;19.52;30.17;93006.66;5058451;28;20025;-46
2021/01/05 10:55:57;;;;;;;4.63;2.60;;;;;;;19.94;28.63;92968.97;5049273;28;20490;-46
2021/01/05 10:58:22;;;;;;;1.92;1.58;;;;;;;19.66;29.46;93012.28;5049574;28;20031;-46
2021/01/05 11:00:51;;;;;;;2.70;1.92;;;;;;;19.55;30.16;93013.09;5054938;28;20424;-45
2021/01/05 11:03:17;;;;;;;;;;;;;;;19.23;30.31;93014.09;5069169;28;20035;-45
2021/01/05 11:05:42;;;;;;;3.15;2.00;;;;;;;18.50;31.72;92998.06;5061657;28;19916;-47
2021/01/05 11:08:08;;;;;;;3.35;2.20;;;;;;;17.54;33.22;93023.75;5049568;28;20398;-46
2021/01/05 11:10:34;;;;;;;3.00;2.10;;;;;;;17.10;35.29;93014.03;5052035;28;20020;-46
2021/01/05 11:13:00;;;;;;;5.45;2.42;;;;;;;17.88;33.04;93004.22;5054512;28;20032;-44
2021/01/05 11:15:25;;;;;;;1.95;1.70;;;;;;;18.24;31.90;93008.44;5060315;28;20347;-45
2021/01/05 11:17:51;;;;;;;1.67;1.58;;;;;;;18.92;31.17;93020.81;5051724;28;20025;-47
2021/01/05 11:20:17;;;;;;;4.90;1.92;;;;;;;19.48;30.78;93017.63;5049093;28;20035;-46
2021/01/05 11:22:43;;;;;;;4.80;2.25;;;;;;;19.43;29.15;93027.16;5048994;28;20387;-53
2021/01/05 11:25:13;;;;;;;1.75;1.42;;;;;;;19.70;28.87;93015.31;5051611;28;20035;-45
2021/01/05 11:27:38;;;;;;;4.43;1.95;;;;;;;20.36;28.74;93018.06;5033141;28;20029;-47
2021/01/05 11:30:05;;;;;;;2.30;1.25;;;;;;;20.15;26.35;93019.09;5064075;28;20035;-50
2021/01/05 11:32:31;;;;;;;3.28;2.22;;;;;;;19.30;28.37;93013.06;5071820;28;20141;-48
2021/01/05 11:34:56;;;;;;;4.43;2.33;;;;;;;19.34;29.38;93002.84;5069148;28;20464;-51
2021/01/05 11:37:22;;;;;;;7.30;3.10;;;;;;;18.52;31.56;93012.91;5059352;28;20091;-47
2021/01/05 11:39:49;;;;;;;3.00;1.90;;;;;;;18.61;29.72;93008.50;5082687;28;20462;-45
2021/01/05 11:42:17;;;;;;;2.28;1.75;;;;;;;18.21;30.99;93003.34;5088981;28;20028;-44
2021/01/05 11:44:45;;;;;;;3.88;1.58;;;;;;;16.99;32.31;93009.16;5088881;28;20047;-50
2021/01/05 11:47:12;;;;;;;6.82;3.58;;;;;;;16.97;33.45;93011.09;5059947;28;20129;-45
2021/01/05 11:49:37;;;;;;;7.97;3.17;;;;;;;17.87;32.61;93005.56;5073252;28;20458;-45